createdAt,value
2023-09-12T00:02:00.124Z,24.04
2023-09-12T00:04:02.724Z,24.04
2023-09-12T00:06:06.127Z,24.04
2023-09-12T00:08:08.723Z,24.06
2023-09-12T00:10:11.372Z,24.05
2023-09-12T00:12:16.861Z,24.06
2023-09-12T00:14:19.989Z,24.11
2023-09-12T00:16:22.293Z,24.08
2023-09-12T00:18:25.188Z,24.08
2023-09-12T00:20:27.713Z,24.10
2023-09-12T00:22:30.237Z,24.09
2023-09-12T00:24:32.820Z,24.11
2023-09-12T00:26:35.453Z,24.00
2023-09-12T00:28:40.140Z,23.98
2023-09-12T00:30:42.863Z,24.01
2023-09-12T00:32:47.713Z,24.01
2023-09-12T00:34:50.149Z,24.02
2023-09-12T00:36:52.715Z,24.04
2023-09-12T00:38:55.140Z,24.07
2023-09-12T00:40:57.595Z,24.05
2023-09-12T00:43:00.732Z,23.96
2023-09-12T00:45:03.135Z,23.82
2023-09-12T00:47:06.452Z,23.77
2023-09-12T00:49:10.259Z,23.72
2023-09-12T00:51:12.832Z,23.74
2023-09-12T00:53:17.442Z,23.72
2023-09-12T00:55:20.147Z,23.77
2023-09-12T00:57:23.467Z,23.79
2023-09-12T00:59:26.350Z,23.76
2023-09-12T01:01:29.002Z,23.74
2023-09-12T01:03:32.358Z,23.62
2023-09-12T01:05:35.577Z,23.54
2023-09-12T01:07:39.197Z,23.55
2023-09-12T01:09:42.443Z,23.46
2023-09-12T01:11:45.617Z,23.34
2023-09-12T01:13:48.168Z,23.23
2023-09-12T01:15:50.512Z,23.24
2023-09-12T01:17:53.132Z,23.30
2023-09-12T01:19:55.722Z,23.32
2023-09-12T01:22:42.185Z,22.90
2023-09-12T01:25:02.791Z,23.03
2023-09-12T01:27:29.342Z,23.00
2023-09-12T01:29:33.436Z,23.02
2023-09-12T01:31:38.720Z,22.88
2023-09-12T01:33:41.842Z,22.91
2023-09-12T01:35:45.039Z,22.95
2023-09-12T01:37:47.672Z,22.95
2023-09-12T01:39:50.595Z,23.00
2023-09-12T01:41:54.718Z,22.99
2023-09-12T01:43:58.929Z,22.89
2023-09-12T01:46:03.347Z,22.93
2023-09-12T01:48:08.086Z,22.90
2023-09-12T01:50:14.471Z,22.87
2023-09-12T01:52:17.518Z,22.98
2023-09-12T01:54:21.981Z,23.02
2023-09-12T01:56:25.616Z,23.07
2023-09-12T01:58:28.199Z,23.00
2023-09-12T02:00:31.172Z,23.07
2023-09-12T02:02:33.620Z,23.06
2023-09-12T02:04:36.157Z,23.07
2023-09-12T02:06:38.653Z,23.11
2023-09-12T02:08:41.446Z,23.09
2023-09-12T02:10:45.199Z,23.06
2023-09-12T02:12:47.715Z,23.10
2023-09-12T02:14:50.124Z,23.04
2023-09-12T02:16:52.718Z,22.98
2023-09-12T02:18:56.852Z,23.04
2023-09-12T02:21:02.501Z,22.94
2023-09-12T02:23:05.045Z,22.82
2023-09-12T02:25:08.027Z,22.81
2023-09-12T02:27:10.417Z,22.81
2023-09-12T02:29:12.954Z,22.86
2023-09-12T02:31:15.372Z,22.83
2023-09-12T02:33:17.990Z,22.78
2023-09-12T02:35:20.370Z,22.79
2023-09-12T02:37:22.756Z,22.75
2023-09-12T02:39:25.311Z,22.67
2023-09-12T02:41:27.812Z,22.75
2023-09-12T02:43:30.932Z,22.70
2023-09-12T02:45:33.418Z,22.74
2023-09-12T02:47:35.858Z,22.80
2023-09-12T02:49:38.496Z,22.66
2023-09-12T02:51:41.169Z,22.57
2023-09-12T02:53:43.723Z,22.63
2023-09-12T02:55:46.258Z,22.65
2023-09-12T02:57:48.876Z,22.73
2023-09-12T02:59:51.459Z,22.71
2023-09-12T03:01:53.922Z,22.74
2023-09-12T03:03:56.642Z,22.73
2023-09-12T03:06:05.182Z,22.68
2023-09-12T03:08:07.720Z,22.66
2023-09-12T03:10:10.523Z,22.63
2023-09-12T03:12:13.216Z,22.63
2023-09-12T03:14:15.671Z,22.65
2023-09-12T03:16:18.865Z,22.67
2023-09-12T03:18:21.783Z,22.59
2023-09-12T03:20:24.601Z,22.61
2023-09-12T03:22:27.278Z,22.55
2023-09-12T03:24:30.369Z,22.52
2023-09-12T03:26:35.668Z,22.53
2023-09-12T03:28:38.305Z,22.37
2023-09-12T03:30:41.168Z,22.47
2023-09-12T03:32:44.606Z,22.47
2023-09-12T03:34:47.256Z,22.49
2023-09-12T03:36:49.999Z,22.49
2023-09-12T03:38:52.420Z,22.47
2023-09-12T03:40:54.868Z,22.47
2023-09-12T03:42:57.862Z,22.50
2023-09-12T03:45:00.376Z,22.50
2023-09-12T03:47:02.846Z,22.48
2023-09-12T03:49:05.371Z,22.45
2023-09-12T03:51:07.971Z,22.44
2023-09-12T03:53:10.693Z,22.44
2023-09-12T03:55:13.132Z,22.38
2023-09-12T03:57:16.668Z,22.44
2023-09-12T03:59:19.146Z,22.40
2023-09-12T04:01:22.489Z,22.39
2023-09-12T04:03:25.109Z,22.36
2023-09-12T04:05:28.400Z,22.31
2023-09-12T04:07:30.914Z,22.30
2023-09-12T04:09:34.098Z,22.27
2023-09-12T04:11:46.337Z,22.23
2023-09-12T04:13:49.983Z,22.25
2023-09-12T04:15:53.322Z,22.25
2023-09-12T04:17:56.238Z,22.24
2023-09-12T04:19:58.778Z,22.16
2023-09-12T04:22:02.489Z,22.13
2023-09-12T04:24:05.799Z,22.13
2023-09-12T04:26:08.961Z,22.16
2023-09-12T04:28:11.515Z,22.14
2023-09-12T04:30:14.512Z,22.20
2023-09-12T04:32:18.394Z,22.15
2023-09-12T04:34:21.014Z,22.17
2023-09-12T04:36:24.596Z,22.18
2023-09-12T04:38:28.010Z,22.23
2023-09-12T04:40:31.068Z,22.20
2023-09-12T04:42:33.867Z,22.26
2023-09-12T04:44:41.137Z,22.25
2023-09-12T04:46:44.663Z,22.30
2023-09-12T04:48:47.742Z,22.26
2023-09-12T04:50:50.394Z,22.25
2023-09-12T04:52:52.723Z,22.30
2023-09-12T04:54:55.533Z,22.34
2023-09-12T04:56:58.123Z,22.46
2023-09-12T04:59:00.603Z,22.44
2023-09-12T05:01:03.884Z,22.48
2023-09-12T05:03:06.733Z,22.53
2023-09-12T05:05:09.733Z,22.50
2023-09-12T05:07:12.196Z,22.53
2023-09-12T05:09:14.908Z,22.61
2023-09-12T05:11:17.347Z,22.65
2023-09-12T05:13:20.393Z,22.72
2023-09-12T05:15:22.774Z,22.72
2023-09-12T05:17:26.438Z,22.76
2023-09-12T05:19:29.193Z,22.81
2023-09-12T05:21:31.704Z,22.85
2023-09-12T05:23:34.825Z,22.88
2023-09-12T05:25:37.440Z,22.95
2023-09-12T05:27:40.012Z,23.01
2023-09-12T05:29:43.154Z,23.14
2023-09-12T05:31:45.851Z,23.14
2023-09-12T05:33:48.662Z,23.20
2023-09-12T05:35:51.235Z,23.24
2023-09-12T05:37:53.809Z,23.24
2023-09-12T05:39:56.326Z,23.34
2023-09-12T05:41:59.257Z,23.41
2023-09-12T05:44:01.817Z,23.49
2023-09-12T05:46:04.347Z,23.52
2023-09-12T05:48:06.973Z,23.56
2023-09-12T05:50:10.851Z,23.65
2023-09-12T05:52:13.515Z,23.76
2023-09-12T05:54:17.093Z,23.82
2023-09-12T05:56:21.962Z,23.94
2023-09-12T05:58:24.422Z,23.84
2023-09-12T06:00:27.607Z,23.95
2023-09-12T06:02:32.033Z,23.99
2023-09-12T06:04:34.568Z,24.05
2023-09-12T06:06:37.137Z,24.19
2023-09-12T06:08:39.940Z,24.26
2023-09-12T06:10:42.543Z,24.38
2023-09-12T06:12:45.324Z,24.41
2023-09-12T06:14:47.909Z,24.47
2023-09-12T06:16:50.515Z,24.61
2023-09-12T06:18:55.141Z,24.64
2023-09-12T06:20:57.755Z,24.74
2023-09-12T06:23:00.848Z,24.72
2023-09-12T06:25:04.653Z,24.69
2023-09-12T06:27:07.110Z,24.64
2023-09-12T06:29:10.320Z,24.79
2023-09-12T06:31:14.336Z,24.94
2023-09-12T06:33:16.896Z,25.05
2023-09-12T06:35:19.519Z,25.16
2023-09-12T06:37:22.626Z,25.21
2023-09-12T06:39:25.945Z,25.35
2023-09-12T06:41:29.259Z,25.51
2023-09-12T06:43:32.284Z,25.67
2023-09-12T06:45:34.859Z,25.59
2023-09-12T06:47:37.446Z,25.71
2023-09-12T06:49:39.930Z,25.71
2023-09-12T06:51:42.800Z,25.76
2023-09-12T06:53:45.555Z,25.95
2023-09-12T06:55:48.163Z,25.93
2023-09-12T06:57:50.708Z,26.09
2023-09-12T06:59:53.207Z,26.20
2023-09-12T07:01:55.718Z,26.37
2023-09-12T07:03:58.329Z,26.44
2023-09-12T07:06:01.206Z,26.51
2023-09-12T07:08:03.827Z,26.58
2023-09-12T07:10:22.808Z,26.69
2023-09-12T07:12:30.522Z,26.66
2023-09-12T07:14:33.417Z,26.73
2023-09-12T07:16:35.981Z,26.83
2023-09-12T07:18:38.699Z,26.77
2023-09-12T07:20:41.212Z,26.99
2023-09-12T07:22:43.659Z,26.81
2023-09-12T07:24:46.287Z,26.98
2023-09-12T07:26:48.853Z,27.08
2023-09-12T07:28:51.558Z,27.08
2023-09-12T07:30:56.080Z,27.20
2023-09-12T07:32:58.739Z,27.28
2023-09-12T07:35:01.132Z,27.46
2023-09-12T07:37:04.174Z,27.60
2023-09-12T07:39:07.038Z,27.75
2023-09-12T07:41:09.587Z,27.87
2023-09-12T07:43:12.525Z,28.03
2023-09-12T07:45:15.209Z,28.18
2023-09-12T07:47:18.160Z,28.29
2023-09-12T07:49:20.591Z,28.40
2023-09-12T07:51:24.410Z,28.48
2023-09-12T07:53:26.854Z,28.60
2023-09-12T07:55:32.480Z,28.62
2023-09-12T07:57:35.718Z,28.77
2023-09-12T07:59:38.262Z,28.89
2023-09-12T08:01:40.730Z,29.00
2023-09-12T08:03:44.369Z,29.09
2023-09-12T08:05:59.294Z,29.16
2023-09-12T08:08:02.212Z,29.25
2023-09-12T08:10:05.371Z,29.35
2023-09-12T08:12:08.232Z,29.44
2023-09-12T08:14:10.660Z,29.52
2023-09-12T08:16:13.143Z,29.62
2023-09-12T08:18:16.560Z,29.70
2023-09-12T08:20:19.751Z,29.85
2023-09-12T08:22:22.309Z,29.92
2023-09-12T08:24:24.967Z,30.01
2023-09-12T08:26:27.966Z,30.10
2023-09-12T08:28:30.596Z,30.23
2023-09-12T08:30:34.964Z,30.34
2023-09-12T08:32:37.492Z,30.45
2023-09-12T08:34:39.989Z,30.55
2023-09-12T08:36:42.585Z,30.63
2023-09-12T08:38:45.069Z,30.76
2023-09-12T08:40:53.948Z,30.85
2023-09-12T08:42:59.044Z,30.92
2023-09-12T08:45:02.515Z,31.01
2023-09-12T08:47:06.545Z,31.02
2023-09-12T08:49:10.994Z,31.15
2023-09-12T08:51:14.494Z,31.25
2023-09-12T08:53:17.085Z,31.35
2023-09-12T08:55:19.741Z,31.41
2023-09-12T08:57:23.367Z,31.41
2023-09-12T08:59:28.331Z,31.44
2023-09-12T09:01:34.757Z,31.50
2023-09-12T09:03:38.042Z,31.55
2023-09-12T09:05:43.719Z,31.60
2023-09-12T09:07:46.045Z,31.70
2023-09-12T09:09:51.127Z,31.77
2023-09-12T09:11:53.645Z,31.85
2023-09-12T09:13:57.542Z,31.95
2023-09-12T09:16:21.561Z,31.93
2023-09-12T09:18:24.396Z,32.04
2023-09-12T09:20:29.961Z,32.08
2023-09-12T09:22:32.408Z,32.14
2023-09-12T09:24:35.163Z,32.21
2023-09-12T09:26:46.778Z,32.29
2023-09-12T09:29:07.273Z,32.35
2023-09-12T09:31:15.770Z,32.38
2023-09-12T09:33:19.115Z,32.44
2023-09-12T09:35:21.689Z,32.53
2023-09-12T09:37:24.951Z,32.61
2023-09-12T09:39:32.306Z,32.63
2023-09-12T09:41:34.976Z,32.67
2023-09-12T09:43:37.888Z,32.69
2023-09-12T09:45:47.860Z,32.75
2023-09-12T09:47:52.365Z,32.79
2023-09-12T09:49:54.927Z,32.85
2023-09-12T09:51:58.421Z,32.95
2023-09-12T09:54:02.149Z,33.01
2023-09-12T09:56:16.126Z,33.07
2023-09-12T09:58:18.968Z,33.11
2023-09-12T10:00:24.058Z,33.16
2023-09-12T10:02:28.925Z,33.13
2023-09-12T10:04:45.722Z,33.16
2023-09-12T10:06:48.599Z,33.23
2023-09-12T10:08:53.810Z,33.08
2023-09-12T10:10:56.317Z,33.12
2023-09-12T10:13:00.083Z,33.22
2023-09-12T10:15:03.201Z,33.29
2023-09-12T10:17:08.150Z,33.33
2023-09-12T10:19:19.914Z,33.35
2023-09-12T10:21:30.732Z,33.40
2023-09-12T10:23:43.841Z,33.44
2023-09-12T10:25:47.684Z,33.54
2023-09-12T10:27:51.948Z,33.62
2023-09-12T10:29:55.198Z,33.66
2023-09-12T10:31:57.807Z,33.70
2023-09-12T10:34:01.480Z,33.72
2023-09-12T10:36:10.020Z,33.71
2023-09-12T10:38:15.499Z,33.80
2023-09-12T10:40:19.012Z,33.79
2023-09-12T10:42:22.535Z,33.87
2023-09-12T10:44:26.044Z,33.93
2023-09-12T10:46:29.010Z,34.04
2023-09-12T10:48:33.858Z,34.08
2023-09-12T10:50:36.836Z,34.11
2023-09-12T10:52:41.268Z,34.16
2023-09-12T10:54:44.232Z,34.20
2023-09-12T10:56:51.849Z,34.22
2023-09-12T10:59:06.369Z,34.24
2023-09-12T11:01:27.615Z,34.22
2023-09-12T11:03:30.466Z,34.28
2023-09-12T11:05:35.015Z,34.29
2023-09-12T11:07:37.696Z,34.31
2023-09-12T11:09:40.626Z,34.34
2023-09-12T11:11:50.826Z,34.38
2023-09-12T11:14:06.452Z,34.38
2023-09-12T11:16:13.795Z,34.37
2023-09-12T11:18:16.797Z,34.39
2023-09-12T11:20:19.611Z,34.44
2023-09-12T11:22:27.357Z,34.52
2023-09-12T11:24:29.954Z,34.60
2023-09-12T11:26:32.612Z,34.62
2023-09-12T11:28:35.635Z,34.68
2023-09-12T11:30:38.319Z,34.73
2023-09-12T11:32:41.072Z,34.75
2023-09-12T11:34:45.943Z,34.72
2023-09-12T11:36:48.588Z,34.61
2023-09-12T11:38:51.887Z,34.55
2023-09-12T11:40:54.404Z,34.53
2023-09-12T11:42:58.837Z,34.59
2023-09-12T11:45:02.909Z,34.59
2023-09-12T11:47:08.088Z,34.63
2023-09-12T11:49:10.851Z,34.66
2023-09-12T11:51:13.375Z,34.72
2023-09-12T11:53:15.916Z,34.74
2023-09-12T11:55:24.443Z,34.68
2023-09-12T11:57:27.100Z,34.74
2023-09-12T11:59:30.760Z,34.70
2023-09-12T12:01:33.650Z,34.71
2023-09-12T12:03:36.329Z,34.72
2023-09-12T12:05:39.577Z,34.64
2023-09-12T12:07:46.696Z,34.60
2023-09-12T12:09:49.430Z,34.65
2023-09-12T12:11:52.093Z,34.67
2023-09-12T12:13:54.619Z,34.71
2023-09-12T12:15:58.536Z,34.76
2023-09-12T12:18:01.449Z,34.80
2023-09-12T12:20:09.025Z,34.78
2023-09-12T12:22:11.853Z,34.75
2023-09-12T12:24:17.337Z,34.73
2023-09-12T12:26:20.786Z,34.72
2023-09-12T12:28:23.361Z,34.71
2023-09-12T12:30:25.838Z,34.74
2023-09-12T12:32:28.473Z,34.76
2023-09-12T12:35:10.804Z,34.81
2023-09-12T12:36:58.402Z,34.84
2023-09-12T12:39:01.954Z,34.83
2023-09-12T12:41:04.576Z,34.85
2023-09-12T12:43:07.677Z,34.86
2023-09-12T12:45:15.206Z,34.92
2023-09-12T12:47:17.817Z,34.98
2023-09-12T12:49:21.765Z,34.99
2023-09-12T12:51:26.489Z,35.05
2023-09-12T12:53:53.750Z,35.04
2023-09-12T12:55:57.174Z,35.10
2023-09-12T12:57:59.726Z,35.11
2023-09-12T13:00:04.645Z,35.09
2023-09-12T13:02:07.451Z,35.09
2023-09-12T13:04:10.364Z,35.07
2023-09-12T13:06:18.454Z,35.00
2023-09-12T13:08:20.999Z,34.99
2023-09-12T13:10:24.608Z,35.03
2023-09-12T13:12:27.196Z,35.02
2023-09-12T13:14:32.481Z,35.08
2023-09-12T13:16:35.780Z,35.11
2023-09-12T13:18:39.808Z,35.11
2023-09-12T13:20:42.294Z,35.13
2023-09-12T13:22:48.248Z,35.15
2023-09-12T13:24:50.922Z,35.13
2023-09-12T13:26:55.067Z,35.13
2023-09-12T13:28:59.222Z,35.17
2023-09-12T13:31:02.268Z,35.18
2023-09-12T13:33:05.405Z,35.20
2023-09-12T13:35:09.491Z,35.16
2023-09-12T13:37:13.225Z,35.06
2023-09-12T13:39:16.244Z,35.06
2023-09-12T13:41:19.521Z,35.01
2023-09-12T13:43:21.988Z,34.99
2023-09-12T13:45:24.551Z,34.95
2023-09-12T13:47:27.480Z,34.88
2023-09-12T13:49:30.085Z,34.91
2023-09-12T13:51:33.054Z,34.91
2023-09-12T13:53:35.649Z,34.90
2023-09-12T13:56:00.822Z,34.90
2023-09-12T13:58:05.852Z,34.80
2023-09-12T14:00:09.502Z,34.80
2023-09-12T14:02:12.593Z,34.86
2023-09-12T14:04:18.066Z,34.85
2023-09-12T14:06:21.215Z,34.88
2023-09-12T14:08:24.224Z,34.84
2023-09-12T14:10:35.227Z,34.83
2023-09-12T14:12:39.661Z,34.88
2023-09-12T14:14:43.986Z,34.92
2023-09-12T14:16:49.265Z,34.85
2023-09-12T14:18:52.537Z,34.88
2023-09-12T14:20:56.915Z,34.90
2023-09-12T14:23:00.826Z,34.89
2023-09-12T14:25:04.496Z,34.90
2023-09-12T14:27:11.802Z,34.83
2023-09-12T14:29:20.701Z,34.80
2023-09-12T14:31:26.355Z,34.76
2023-09-12T14:33:29.285Z,34.74
2023-09-12T14:35:31.758Z,34.72
2023-09-12T14:37:34.540Z,34.72
2023-09-12T14:39:37.101Z,34.71
2023-09-12T14:41:39.595Z,34.69
2023-09-12T14:43:42.381Z,34.67
2023-09-12T14:45:45.355Z,34.65
2023-09-12T14:47:47.898Z,34.61
2023-09-12T14:49:51.972Z,34.62
2023-09-12T14:51:55.024Z,34.65
2023-09-12T14:53:57.674Z,34.62
2023-09-12T14:56:00.105Z,34.60
2023-09-12T14:58:02.752Z,34.57
2023-09-12T15:00:06.065Z,34.55
2023-09-12T15:02:08.990Z,34.53
2023-09-12T15:04:15.562Z,34.51
2023-09-12T15:06:19.784Z,34.45
2023-09-12T15:08:23.832Z,34.41
2023-09-12T15:10:26.315Z,34.40
2023-09-12T15:12:29.171Z,34.39
2023-09-12T15:14:32.082Z,34.36
2023-09-12T15:16:36.274Z,34.35
2023-09-12T15:18:41.851Z,34.32
2023-09-12T15:20:44.373Z,34.32
2023-09-12T15:22:46.938Z,34.30
2023-09-12T15:24:49.440Z,34.27
2023-09-12T15:26:52.003Z,34.28
2023-09-12T15:28:54.648Z,34.25
2023-09-12T15:30:57.233Z,34.21
2023-09-12T15:32:59.921Z,34.17
2023-09-12T15:35:04.048Z,34.12
2023-09-12T15:39:20.292Z,34.07
2023-09-12T15:41:22.698Z,34.04
2023-09-12T15:43:25.720Z,34.04
2023-09-12T15:45:44.838Z,33.97
2023-09-12T15:47:51.118Z,33.97
2023-09-12T15:49:53.568Z,33.91
2023-09-12T15:51:56.380Z,33.88
2023-09-12T15:53:59.084Z,33.83
2023-09-12T15:56:01.499Z,33.80
2023-09-12T15:58:04.171Z,33.77
2023-09-12T16:00:08.536Z,33.73
2023-09-12T16:02:18.341Z,33.67
2023-09-12T16:04:21.339Z,33.63
2023-09-12T16:06:24.384Z,33.58
2023-09-12T16:08:28.196Z,33.54
2023-09-12T16:10:30.726Z,33.50
2023-09-12T16:12:33.286Z,33.44
2023-09-12T16:14:36.094Z,33.40
2023-09-12T16:16:38.481Z,33.34
2023-09-12T16:18:41.161Z,33.31
2023-09-12T16:20:43.593Z,33.24
2023-09-12T16:22:46.021Z,33.20
2023-09-12T16:24:48.770Z,33.12
2023-09-12T16:26:51.463Z,33.04
2023-09-12T16:28:53.846Z,33.00
2023-09-12T16:30:56.694Z,32.93
2023-09-12T16:32:59.400Z,32.85
2023-09-12T16:35:03.007Z,32.78
2023-09-12T16:37:05.979Z,32.71
2023-09-12T16:39:08.636Z,32.63
2023-09-12T16:41:11.064Z,32.55
2023-09-12T16:43:13.647Z,32.47
2023-09-12T16:45:16.047Z,32.41
2023-09-12T16:47:19.179Z,32.34
2023-09-12T16:49:21.639Z,32.26
2023-09-12T16:51:24.299Z,32.18
2023-09-12T16:53:26.723Z,32.12
2023-09-12T16:55:29.434Z,32.05
2023-09-12T16:57:31.948Z,31.98
2023-09-12T16:59:34.596Z,31.90
2023-09-12T17:01:37.202Z,31.84
2023-09-12T17:03:43.852Z,31.78
2023-09-12T17:05:47.107Z,31.71
2023-09-12T17:07:49.660Z,31.64
2023-09-12T17:09:53.231Z,31.58
2023-09-12T17:11:55.766Z,31.49
2023-09-12T17:13:59.047Z,31.43
2023-09-12T17:16:01.750Z,31.34
2023-09-12T17:18:05.575Z,31.28
2023-09-12T17:20:08.439Z,31.20
2023-09-12T17:22:13.316Z,31.13
2023-09-12T17:24:15.922Z,31.07
2023-09-12T17:26:18.451Z,31.03
2023-09-12T17:28:21.003Z,30.92
2023-09-12T17:30:23.881Z,30.82
2023-09-12T17:32:28.879Z,30.75
2023-09-12T17:34:46.180Z,30.66
2023-09-12T17:36:48.742Z,30.66
2023-09-12T17:38:51.326Z,30.65
2023-09-12T17:40:53.822Z,30.60
2023-09-12T17:42:59.941Z,30.53
2023-09-12T17:45:03.061Z,30.49
2023-09-12T17:47:05.948Z,30.43
2023-09-12T17:49:08.698Z,30.37
2023-09-12T17:51:11.353Z,30.31
2023-09-12T17:53:14.014Z,30.24
2023-09-12T17:55:18.377Z,30.17
2023-09-12T17:57:21.093Z,30.12
2023-09-12T17:59:24.353Z,30.06
2023-09-12T18:01:27.441Z,30.00
2023-09-12T18:03:32.465Z,29.94
2023-09-12T18:05:35.558Z,29.88
2023-09-12T18:07:38.350Z,29.84
2023-09-12T18:09:40.876Z,29.79
2023-09-12T18:11:43.322Z,29.68
2023-09-12T18:13:50.628Z,29.62
2023-09-12T18:15:53.069Z,29.58
2023-09-12T18:17:55.804Z,29.56
2023-09-12T18:19:58.296Z,29.53
2023-09-12T18:22:00.890Z,29.50
2023-09-12T18:24:03.824Z,29.42
2023-09-12T18:26:09.111Z,29.37
2023-09-12T18:28:11.667Z,29.29
2023-09-12T18:30:14.170Z,29.25
2023-09-12T18:32:18.304Z,29.19
2023-09-12T18:34:20.720Z,29.16
2023-09-12T18:36:23.588Z,29.16
2023-09-12T18:38:26.071Z,29.11
2023-09-12T18:40:29.835Z,29.04
2023-09-12T18:42:32.359Z,28.97
2023-09-12T18:44:34.683Z,28.92
2023-09-12T18:46:37.621Z,28.87
2023-09-12T18:48:41.681Z,28.82
2023-09-12T18:50:45.601Z,28.78
2023-09-12T18:52:55.062Z,28.72
2023-09-12T18:54:58.273Z,28.69
2023-09-12T18:57:01.638Z,28.66
2023-09-12T18:59:04.266Z,28.64
2023-09-12T19:01:09.408Z,28.61
2023-09-12T19:03:15.964Z,28.56
2023-09-12T19:05:18.988Z,28.52
2023-09-12T19:07:21.410Z,28.48
2023-09-12T19:09:24.136Z,28.44
2023-09-12T19:11:26.593Z,28.37
2023-09-12T19:13:29.118Z,28.35
2023-09-12T19:15:31.929Z,28.33
2023-09-12T19:17:34.336Z,28.27
2023-09-12T19:19:37.154Z,28.25
2023-09-12T19:21:40.091Z,28.24
2023-09-12T19:23:42.574Z,28.19
2023-09-12T19:25:49.327Z,28.16
2023-09-12T19:27:51.917Z,28.13
2023-09-12T19:29:58.240Z,28.11
2023-09-12T19:32:01.031Z,28.09
2023-09-12T19:34:05.010Z,28.04
2023-09-12T19:36:07.594Z,28.01
2023-09-12T19:38:10.687Z,28.00
2023-09-12T19:40:16.331Z,28.00
2023-09-12T19:42:19.608Z,27.97
2023-09-12T19:44:21.950Z,27.92
2023-09-12T19:46:24.740Z,27.88
2023-09-12T19:48:27.201Z,27.88
2023-09-12T19:50:32.742Z,27.85
2023-09-12T19:52:35.050Z,27.77
2023-09-12T19:54:37.723Z,27.75
2023-09-12T19:56:40.193Z,27.74
2023-09-12T19:58:42.708Z,27.62
2023-09-12T20:00:45.253Z,27.49
2023-09-12T20:02:50.475Z,27.48
2023-09-12T20:04:53.201Z,27.50
2023-09-12T20:06:56.605Z,27.53
2023-09-12T20:08:59.357Z,27.49
2023-09-12T20:11:01.748Z,27.49
2023-09-12T20:13:04.401Z,27.42
2023-09-12T20:15:07.661Z,27.40
2023-09-12T20:17:10.122Z,27.40
2023-09-12T20:19:12.987Z,27.32
2023-09-12T20:21:15.684Z,27.28
2023-09-12T20:23:18.071Z,27.27
2023-09-12T20:25:22.801Z,27.27
2023-09-12T20:27:25.209Z,27.27
2023-09-12T20:29:27.939Z,27.21
2023-09-12T20:31:30.307Z,27.18
2023-09-12T20:33:33.104Z,27.00
2023-09-12T20:35:36.608Z,26.86
2023-09-12T20:37:41.705Z,26.82
2023-09-12T20:39:44.562Z,26.75
2023-09-12T20:41:47.080Z,26.70
2023-09-12T20:43:49.679Z,26.68
2023-09-12T20:45:54.532Z,26.59
2023-09-12T20:47:57.199Z,26.57
2023-09-12T20:50:01.243Z,26.57
2023-09-12T20:52:04.014Z,26.54
2023-09-12T20:54:09.827Z,26.57
2023-09-12T20:56:14.749Z,26.49
2023-09-12T20:58:18.228Z,26.42
2023-09-12T21:00:21.938Z,26.42
2023-09-12T21:02:24.596Z,26.42
2023-09-12T21:04:27.210Z,26.38
2023-09-12T21:06:29.716Z,26.44
2023-09-12T21:08:32.896Z,26.42
2023-09-12T21:10:35.442Z,26.40
2023-09-12T21:12:38.074Z,26.15
2023-09-12T21:14:40.529Z,26.07
2023-09-12T21:16:43.277Z,26.04
2023-09-12T21:18:46.019Z,26.01
2023-09-12T21:20:49.682Z,26.03
2023-09-12T21:22:52.198Z,26.05
2023-09-12T21:24:54.829Z,26.00
2023-09-12T21:26:57.397Z,26.03
2023-09-12T21:28:59.903Z,25.83
2023-09-12T21:31:02.621Z,25.85
2023-09-12T21:33:05.567Z,25.92
2023-09-12T21:35:16.395Z,25.73
2023-09-12T21:37:18.974Z,25.70
2023-09-12T21:39:21.688Z,25.74
2023-09-12T21:41:24.065Z,25.72
2023-09-12T21:43:27.414Z,25.48
2023-09-12T21:45:29.943Z,25.56
2023-09-12T21:47:33.215Z,25.69
2023-09-12T21:49:35.996Z,25.74
2023-09-12T21:51:38.684Z,25.77
2023-09-12T21:53:41.872Z,25.76
2023-09-12T21:55:44.715Z,25.85
2023-09-12T21:57:47.454Z,25.82
2023-09-12T21:59:49.925Z,25.87
2023-09-12T22:01:52.538Z,25.92
2023-09-12T22:03:55.038Z,25.94
2023-09-12T22:05:57.608Z,25.95
2023-09-12T22:08:00.149Z,25.93
2023-09-12T22:10:05.229Z,25.91
2023-09-12T22:12:08.254Z,25.91
2023-09-12T22:14:11.261Z,25.90
2023-09-12T22:16:13.820Z,25.90
2023-09-12T22:18:16.332Z,25.93
2023-09-12T22:20:18.802Z,25.95
2023-09-12T22:22:23.726Z,25.93
2023-09-12T22:24:26.335Z,25.94
2023-09-12T22:26:29.046Z,25.83
2023-09-12T22:28:33.501Z,25.81
2023-09-12T22:30:35.999Z,25.79
2023-09-12T22:32:39.060Z,25.83
2023-09-12T22:34:42.052Z,25.73
2023-09-12T22:36:44.504Z,25.73
2023-09-12T22:38:48.143Z,25.71
2023-09-12T22:40:52.739Z,25.66
2023-09-12T22:42:55.255Z,25.67
2023-09-12T22:44:57.819Z,25.64
2023-09-12T22:47:01.661Z,25.64
2023-09-12T22:49:04.285Z,25.64
2023-09-12T22:51:06.711Z,25.57
2023-09-12T22:53:09.451Z,25.58
2023-09-12T22:55:12.323Z,25.53
2023-09-12T22:57:14.821Z,25.56
2023-09-12T22:59:17.321Z,25.50
2023-09-12T23:01:20.150Z,25.51
2023-09-12T23:03:22.721Z,25.53
2023-09-12T23:05:25.344Z,25.53
2023-09-12T23:07:27.820Z,25.56
2023-09-12T23:09:31.123Z,25.59
2023-09-12T23:11:33.523Z,25.62
2023-09-12T23:13:36.062Z,25.62
2023-09-12T23:15:38.848Z,25.60
2023-09-12T23:17:41.409Z,25.54
2023-09-12T23:19:44.129Z,25.53
2023-09-12T23:21:46.608Z,25.44
2023-09-12T23:23:49.329Z,25.39
2023-09-12T23:25:53.922Z,25.37
2023-09-12T23:27:56.476Z,25.39
2023-09-12T23:29:59.283Z,25.35
2023-09-12T23:32:01.878Z,25.36
2023-09-12T23:34:05.346Z,25.35
2023-09-12T23:36:07.899Z,25.32
2023-09-12T23:38:10.329Z,25.33
2023-09-12T23:40:12.808Z,25.38
2023-09-12T23:42:15.249Z,25.27
2023-09-12T23:44:17.614Z,25.19
2023-09-12T23:46:20.203Z,25.18
2023-09-12T23:48:22.736Z,25.20
2023-09-12T23:50:25.461Z,25.19
2023-09-12T23:52:29.083Z,25.16
2023-09-12T23:54:31.815Z,25.11
2023-09-12T23:56:37.350Z,25.03
2023-09-12T23:58:40.027Z,24.99
